createdAt,value
2022-09-22T00:01:33.286Z,19.65
2022-09-22T00:04:06.006Z,20.42
2022-09-22T00:06:41.129Z,20.63
2022-09-22T00:09:12.699Z,23.25
2022-09-22T00:11:51.874Z,18.73
2022-09-22T00:14:25.676Z,18.92
2022-09-22T00:17:01.334Z,20.33
2022-09-22T00:19:36.250Z,21.13
2022-09-22T00:22:05.978Z,21.98
2022-09-22T00:24:33.647Z,24.65
2022-09-22T00:27:01.509Z,19.75
2022-09-22T00:29:30.259Z,24.80
2022-09-22T00:32:00.278Z,20.88
2022-09-22T00:34:29.514Z,18.40
2022-09-22T00:36:56.804Z,18.25
2022-09-22T00:39:24.125Z,18.80
2022-09-22T00:41:52.820Z,19.63
2022-09-22T00:44:41.149Z,17.55
2022-09-22T00:47:37.605Z,14.60
2022-09-22T00:50:24.203Z,17.55
2022-09-22T00:53:21.235Z,16.08
2022-09-22T00:56:03.337Z,19.02
2022-09-22T00:58:36.957Z,16.35
2022-09-22T01:01:05.215Z,16.40
2022-09-22T01:03:32.990Z,18.10
2022-09-22T01:06:05.077Z,19.30
2022-09-22T01:08:34.007Z,15.15
2022-09-22T01:11:02.211Z,17.02
2022-09-22T01:13:59.659Z,19.45
2022-09-22T01:17:06.692Z,16.50
2022-09-22T01:20:03.447Z,17.80
2022-09-22T01:23:05.668Z,16.85
2022-09-22T01:26:13.507Z,20.27
2022-09-22T01:29:03.882Z,18.55
2022-09-22T01:31:34.983Z,21.08
2022-09-22T01:34:32.592Z,21.25
2022-09-22T01:37:27.915Z,20.95
2022-09-22T01:40:03.569Z,21.42
2022-09-22T01:42:44.238Z,22.30
2022-09-22T01:45:29.864Z,20.42
2022-09-22T01:48:13.560Z,26.42
2022-09-22T01:51:19.781Z,20.73
2022-09-22T01:54:00.145Z,25.35
2022-09-22T01:56:31.616Z,24.15
2022-09-22T01:59:03.333Z,22.95
2022-09-22T02:02:04.971Z,34.22
2022-09-22T02:04:45.769Z,30.58
2022-09-22T02:07:33.818Z,26.77
2022-09-22T02:10:08.646Z,24.83
2022-09-22T02:12:37.178Z,33.17
2022-09-22T02:15:26.900Z,32.25
2022-09-22T02:18:05.575Z,29.17
2022-09-22T02:20:34.370Z,31.10
2022-09-22T02:23:01.563Z,32.88
2022-09-22T02:25:29.183Z,27.80
2022-09-22T02:27:57.394Z,33.63
2022-09-22T02:30:25.067Z,34.00
2022-09-22T02:32:58.426Z,33.75
2022-09-22T02:35:30.570Z,30.55
2022-09-22T02:38:28.556Z,31.83
2022-09-22T02:41:11.896Z,34.35
2022-09-22T02:43:59.099Z,33.00
2022-09-22T02:46:46.227Z,34.80
2022-09-22T02:49:18.239Z,36.40
2022-09-22T02:51:49.330Z,30.92
2022-09-22T02:54:17.005Z,28.80
2022-09-22T02:56:45.441Z,31.33
2022-09-22T02:59:12.751Z,35.97
2022-09-22T03:01:40.033Z,33.53
2022-09-22T03:04:07.314Z,38.58
2022-09-22T03:06:35.250Z,42.58
2022-09-22T03:09:02.709Z,33.60
2022-09-22T03:11:29.944Z,41.88
2022-09-22T03:13:57.343Z,41.90
2022-09-22T03:16:25.015Z,43.53
2022-09-22T03:18:52.364Z,38.50
2022-09-22T03:21:19.629Z,45.28
2022-09-22T03:23:46.783Z,46.08
2022-09-22T03:26:13.975Z,41.53
2022-09-22T03:28:41.187Z,41.47
2022-09-22T03:31:08.354Z,39.72
2022-09-22T03:33:35.668Z,44.53
2022-09-22T03:36:03.279Z,53.50
2022-09-22T03:38:30.494Z,48.15
2022-09-22T03:40:58.829Z,48.75
2022-09-22T03:43:26.052Z,51.00
2022-09-22T03:45:59.007Z,48.92
2022-09-22T03:48:30.109Z,55.25
2022-09-22T03:50:58.134Z,46.00
2022-09-22T03:53:25.976Z,53.47
2022-09-22T03:55:53.262Z,48.50
2022-09-22T03:58:21.711Z,57.97
2022-09-22T04:00:50.128Z,51.80
2022-09-22T04:03:17.281Z,51.38
2022-09-22T04:05:52.141Z,48.65
2022-09-22T04:08:19.350Z,51.33
2022-09-22T04:10:46.855Z,56.90
2022-09-22T04:13:15.068Z,49.42
2022-09-22T04:15:42.566Z,49.83
2022-09-22T04:18:12.668Z,48.65
2022-09-22T04:20:44.353Z,43.08
2022-09-22T04:23:14.175Z,47.53
2022-09-22T04:25:42.006Z,52.13
2022-09-22T04:28:09.159Z,50.17
2022-09-22T04:30:37.654Z,47.88
2022-09-22T04:33:05.327Z,46.25
2022-09-22T04:35:33.286Z,51.10
2022-09-22T04:38:00.768Z,45.85
2022-09-22T04:40:28.033Z,46.63
2022-09-22T04:42:55.986Z,45.97
2022-09-22T04:45:23.846Z,51.92
2022-09-22T04:47:53.239Z,54.15
2022-09-22T04:50:22.637Z,52.67
2022-09-22T04:52:57.768Z,50.25
2022-09-22T04:55:26.094Z,56.03
2022-09-22T04:57:56.649Z,59.33
2022-09-22T05:00:26.810Z,68.18
2022-09-22T05:02:54.387Z,60.67
2022-09-22T05:05:24.587Z,62.70
2022-09-22T05:07:54.944Z,87.85
2022-09-22T05:10:27.339Z,67.75
2022-09-22T05:12:54.621Z,110.40
2022-09-22T05:15:22.821Z,100.30
2022-09-22T05:17:52.730Z,57.95
2022-09-22T05:20:21.630Z,109.38
2022-09-22T05:22:49.299Z,67.20
2022-09-22T05:25:19.380Z,66.72
2022-09-22T05:27:48.951Z,61.08
2022-09-22T05:30:17.284Z,59.17
2022-09-22T05:32:46.167Z,96.63
2022-09-22T05:35:15.633Z,75.47
2022-09-22T05:37:51.590Z,95.53
2022-09-22T05:40:20.695Z,70.20
2022-09-22T05:42:51.656Z,56.65
2022-09-22T05:45:20.452Z,65.45
2022-09-22T05:47:47.908Z,59.75
2022-09-22T05:50:17.523Z,58.17
2022-09-22T05:52:44.884Z,65.85
2022-09-22T05:55:13.805Z,56.35
2022-09-22T05:57:41.125Z,60.95
2022-09-22T06:00:10.415Z,53.05
2022-09-22T06:02:43.076Z,57.92
2022-09-22T06:05:10.296Z,53.30
2022-09-22T06:07:37.442Z,53.50
2022-09-22T06:10:05.336Z,47.78
2022-09-22T06:12:32.522Z,56.13
2022-09-22T06:14:59.624Z,58.42
2022-09-22T06:17:26.901Z,66.38
2022-09-22T06:19:54.191Z,50.95
2022-09-22T06:22:21.663Z,50.25
2022-09-22T06:24:48.902Z,55.60
2022-09-22T06:27:16.598Z,60.28
2022-09-22T06:29:44.401Z,61.13
2022-09-22T06:32:11.787Z,71.00
2022-09-22T06:34:39.068Z,56.95
2022-09-22T06:37:09.843Z,55.80
2022-09-22T06:42:06.349Z,58.47
2022-09-22T06:44:34.825Z,66.75
2022-09-22T06:47:12.524Z,65.18
2022-09-22T06:49:41.340Z,69.03
2022-09-22T06:52:13.479Z,53.88
2022-09-22T06:54:42.104Z,75.93
2022-09-22T06:57:10.591Z,59.40
2022-09-22T06:59:39.115Z,63.92
2022-09-22T07:02:07.488Z,62.20
2022-09-22T07:04:35.147Z,72.97
2022-09-22T07:07:04.036Z,59.45
2022-09-22T07:09:31.815Z,61.42
2022-09-22T07:12:00.405Z,54.28
2022-09-22T07:14:29.695Z,57.72
2022-09-22T07:16:56.923Z,53.22
2022-09-22T07:19:24.258Z,49.88
2022-09-22T07:21:51.513Z,46.45
2022-09-22T07:24:18.690Z,46.28
2022-09-22T07:26:46.591Z,44.17
2022-09-22T07:29:13.952Z,41.53
2022-09-22T07:31:42.029Z,44.10
2022-09-22T07:34:09.469Z,37.47
2022-09-22T07:36:40.106Z,41.88
2022-09-22T07:39:11.200Z,36.60
2022-09-22T07:41:43.395Z,41.28
2022-09-22T07:44:32.994Z,36.67
2022-09-22T07:47:02.312Z,39.58
2022-09-22T07:49:29.925Z,42.35
2022-09-22T07:51:57.740Z,48.47
2022-09-22T07:54:26.836Z,49.15
2022-09-22T07:56:58.754Z,48.20
2022-09-22T07:59:27.583Z,39.15
2022-09-22T08:01:55.725Z,36.80
2022-09-22T08:04:23.776Z,29.10
2022-09-22T08:06:56.191Z,33.63
2022-09-22T08:09:25.414Z,29.58
2022-09-22T08:11:53.564Z,33.42
2022-09-22T08:14:23.295Z,24.33
2022-09-22T08:16:54.028Z,30.17
2022-09-22T08:19:24.003Z,28.25
2022-09-22T08:21:54.321Z,24.90
2022-09-22T08:26:53.364Z,22.65
2022-09-22T08:29:21.334Z,19.58
2022-09-22T08:31:49.629Z,22.58
2022-09-22T08:34:18.198Z,21.77
2022-09-22T08:36:48.834Z,28.50
2022-09-22T08:42:00.071Z,27.88
2022-09-22T08:44:45.203Z,23.80
2022-09-22T08:47:59.039Z,24.20
2022-09-22T08:50:58.137Z,23.48
2022-09-22T08:53:29.573Z,23.58
2022-09-22T08:56:24.632Z,29.40
2022-09-22T08:59:29.871Z,23.50
2022-09-22T09:02:18.568Z,13.52
2022-09-22T09:05:22.356Z,13.88
2022-09-22T09:08:19.915Z,14.57
2022-09-22T09:10:59.476Z,13.65
2022-09-22T09:13:57.606Z,11.20
2022-09-22T09:16:55.953Z,10.05
2022-09-22T09:19:42.293Z,13.02
2022-09-22T09:22:32.214Z,10.98
2022-09-22T09:25:23.339Z,10.60
2022-09-22T09:28:06.363Z,7.55
2022-09-22T09:30:52.261Z,9.15
2022-09-22T09:33:38.326Z,9.65
2022-09-22T09:36:11.506Z,9.70
2022-09-22T09:38:49.967Z,10.90
2022-09-22T09:41:32.674Z,9.75
2022-09-22T09:44:01.752Z,11.68
2022-09-22T09:46:59.488Z,10.23
2022-09-22T09:49:26.874Z,11.40
2022-09-22T09:52:01.812Z,8.65
2022-09-22T09:54:29.056Z,6.65
2022-09-22T09:57:15.533Z,5.78
2022-09-22T10:00:28.099Z,7.93
2022-09-22T10:03:22.448Z,5.05
2022-09-22T10:06:08.366Z,5.70
2022-09-22T10:08:49.095Z,5.93
2022-09-22T10:11:16.613Z,7.40
2022-09-22T10:13:44.408Z,8.98
2022-09-22T10:16:23.043Z,6.60
2022-09-22T10:19:23.343Z,6.20
2022-09-22T10:21:50.734Z,7.93
2022-09-22T10:24:54.630Z,7.72
2022-09-22T10:27:24.241Z,6.97
2022-09-22T10:30:11.055Z,9.38
2022-09-22T10:32:38.523Z,7.03
2022-09-22T10:35:28.798Z,4.47
2022-09-22T10:38:01.207Z,7.45
2022-09-22T10:40:31.456Z,6.20
2022-09-22T10:43:00.058Z,7.85
2022-09-22T10:46:28.815Z,6.38
2022-09-22T10:49:23.918Z,8.05
2022-09-22T10:52:02.339Z,4.57
2022-09-22T10:55:32.038Z,4.43
2022-09-22T10:58:07.142Z,5.53
2022-09-22T11:00:39.787Z,5.70
2022-09-22T11:04:05.299Z,5.25
2022-09-22T11:07:24.962Z,5.55
2022-09-22T11:10:45.515Z,8.38
2022-09-22T11:16:10.954Z,4.37
2022-09-22T11:19:16.603Z,6.90
2022-09-22T11:22:17.687Z,6.88
2022-09-22T11:25:33.733Z,6.07
2022-09-22T11:28:39.010Z,5.35
2022-09-22T11:31:06.495Z,6.47
2022-09-22T11:33:58.205Z,5.10
2022-09-22T11:37:27.895Z,5.78
2022-09-22T11:41:17.611Z,3.72
2022-09-22T11:44:30.511Z,5.70
2022-09-22T11:47:09.425Z,7.07
2022-09-22T11:50:14.305Z,7.88
2022-09-22T11:53:09.531Z,4.13
2022-09-22T11:56:15.741Z,7.35
2022-09-22T11:58:46.197Z,5.38
2022-09-22T12:04:16.245Z,6.72
2022-09-22T12:06:49.508Z,8.65
2022-09-22T12:09:43.769Z,6.60
2022-09-22T12:12:19.609Z,5.90
2022-09-22T12:15:18.976Z,8.38
2022-09-22T12:17:59.849Z,7.00
2022-09-22T12:20:44.663Z,4.07
2022-09-22T12:23:29.885Z,6.38
2022-09-22T12:26:02.699Z,4.03
2022-09-22T12:28:32.582Z,7.05
2022-09-22T12:31:13.088Z,5.03
2022-09-22T12:33:53.001Z,6.03
2022-09-22T12:36:37.684Z,7.10
2022-09-22T12:39:32.087Z,5.78
2022-09-22T12:42:16.695Z,8.35
2022-09-22T12:44:58.706Z,45.60
2022-09-22T12:47:35.765Z,17.17
2022-09-22T12:50:26.927Z,5.97
2022-09-22T12:52:54.510Z,8.25
2022-09-22T12:55:30.189Z,13.15
2022-09-22T12:57:59.649Z,4.78
2022-09-22T13:00:41.206Z,7.32
2022-09-22T13:03:26.742Z,6.22
2022-09-22T13:06:03.451Z,3.65
2022-09-22T13:08:30.567Z,6.07
2022-09-22T13:11:04.507Z,5.78
2022-09-22T13:13:32.051Z,6.63
2022-09-22T13:16:15.649Z,4.20
2022-09-22T13:18:58.956Z,3.17
2022-09-22T13:21:33.447Z,20.05
2022-09-22T13:24:05.267Z,12.27
2022-09-22T13:26:41.180Z,3.85
2022-09-22T13:29:21.812Z,6.07
2022-09-22T13:31:56.895Z,3.17
2022-09-22T13:34:33.404Z,3.42
2022-09-22T13:37:11.337Z,4.28
2022-09-22T13:39:47.215Z,4.93
2022-09-22T13:42:22.833Z,3.83
2022-09-22T13:45:19.173Z,5.72
2022-09-22T13:47:48.852Z,4.05
2022-09-22T13:50:22.440Z,6.35
2022-09-22T13:52:54.020Z,2.58
2022-09-22T13:55:37.265Z,4.95
2022-09-22T13:58:09.085Z,5.35
2022-09-22T14:01:12.558Z,4.70
2022-09-22T14:03:41.314Z,3.78
2022-09-22T14:06:32.658Z,3.47
2022-09-22T14:09:01.685Z,4.82
2022-09-22T14:11:32.445Z,4.38
2022-09-22T14:14:02.152Z,5.93
2022-09-22T14:16:58.476Z,3.40
2022-09-22T14:19:34.249Z,3.13
2022-09-22T14:22:13.663Z,2.83
2022-09-22T14:24:49.007Z,3.10
2022-09-22T14:27:38.339Z,3.13
2022-09-22T14:30:14.944Z,3.15
2022-09-22T14:32:52.104Z,4.38
2022-09-22T14:35:32.852Z,3.33
2022-09-22T14:38:15.669Z,5.82
2022-09-22T14:40:56.229Z,4.47
2022-09-22T14:43:42.477Z,4.85
2022-09-22T14:46:33.886Z,4.75
2022-09-22T14:49:42.074Z,4.72
2022-09-22T14:52:29.676Z,7.07
2022-09-22T14:55:07.239Z,3.47
2022-09-22T14:57:36.179Z,7.80
2022-09-22T15:00:23.134Z,6.28
2022-09-22T15:02:54.772Z,4.22
2022-09-22T15:05:31.731Z,4.38
2022-09-22T15:08:00.665Z,5.47
2022-09-22T15:10:34.113Z,4.63
2022-09-22T15:13:50.896Z,4.90
2022-09-22T15:16:40.012Z,5.47
2022-09-22T15:19:14.306Z,3.38
2022-09-22T15:21:50.643Z,9.05
2022-09-22T15:24:26.981Z,7.80
2022-09-22T15:26:57.381Z,6.45
2022-09-22T15:29:25.106Z,6.63
2022-09-22T15:31:52.380Z,3.85
2022-09-22T15:34:19.630Z,7.05
2022-09-22T15:36:46.974Z,6.20
2022-09-22T15:39:23.640Z,6.43
2022-09-22T15:41:52.992Z,7.28
2022-09-22T15:44:20.614Z,5.30
2022-09-22T15:46:54.425Z,4.90
2022-09-22T15:49:26.373Z,7.30
2022-09-22T15:51:58.291Z,5.60
2022-09-22T15:54:26.752Z,7.00
2022-09-22T15:56:56.905Z,6.57
2022-09-22T15:59:28.273Z,7.22
2022-09-22T16:01:57.069Z,5.43
2022-09-22T16:04:25.084Z,7.75
2022-09-22T16:07:13.913Z,9.70
2022-09-22T16:09:41.211Z,7.93
2022-09-22T16:12:12.098Z,7.38
2022-09-22T16:14:41.449Z,7.47
2022-09-22T16:17:08.915Z,5.35
2022-09-22T16:19:36.833Z,9.95
2022-09-22T16:22:05.953Z,8.00
2022-09-22T16:24:33.289Z,5.38
2022-09-22T16:27:07.433Z,7.65
2022-09-22T16:29:37.613Z,12.32
2022-09-22T16:32:05.106Z,5.63
2022-09-22T16:34:34.673Z,6.47
2022-09-22T16:37:02.427Z,6.60
2022-09-22T16:39:29.742Z,5.63
2022-09-22T16:41:56.996Z,5.95
2022-09-22T16:44:24.299Z,6.40
2022-09-22T16:46:51.564Z,5.75
2022-09-22T16:49:20.456Z,4.85
2022-09-22T16:51:49.841Z,6.72
2022-09-22T16:54:18.737Z,7.05
2022-09-22T16:56:50.774Z,10.70
2022-09-22T16:59:24.319Z,9.23
2022-09-22T17:01:52.048Z,12.63
2022-09-22T17:04:20.462Z,10.77
2022-09-22T17:06:48.890Z,10.00
2022-09-22T17:09:17.405Z,10.48
2022-09-22T17:11:48.128Z,10.77
2022-09-22T17:16:56.539Z,9.68
2022-09-22T17:19:28.010Z,6.38
2022-09-22T17:21:56.440Z,10.20
2022-09-22T17:24:25.786Z,7.82
2022-09-22T17:26:59.040Z,6.88
2022-09-22T17:29:31.415Z,8.38
2022-09-22T17:32:05.864Z,12.65
2022-09-22T17:34:34.869Z,10.48
2022-09-22T17:37:03.290Z,10.88
2022-09-22T17:39:32.180Z,10.40
2022-09-22T17:41:59.809Z,10.00
2022-09-22T17:44:28.945Z,9.48
2022-09-22T17:47:15.106Z,12.65
2022-09-22T17:50:01.040Z,10.27
2022-09-22T17:52:47.155Z,8.27
2022-09-22T17:55:22.568Z,9.15
2022-09-22T17:57:51.824Z,12.13
2022-09-22T18:00:23.258Z,13.70
2022-09-22T18:02:54.276Z,13.43
2022-09-22T18:05:27.808Z,9.93
2022-09-22T18:07:59.579Z,17.35
2022-09-22T18:10:32.467Z,9.43
2022-09-22T18:13:01.477Z,9.77
2022-09-22T18:15:29.348Z,7.93
2022-09-22T18:17:58.119Z,8.55
2022-09-22T18:20:26.307Z,10.13
2022-09-22T18:22:54.623Z,7.35
2022-09-22T18:25:24.020Z,9.02
2022-09-22T18:27:53.303Z,9.60
2022-09-22T18:30:20.940Z,8.23
2022-09-22T18:32:49.432Z,8.50
2022-09-22T18:35:17.402Z,8.68
2022-09-22T18:37:44.832Z,8.45
2022-09-22T18:40:12.509Z,9.30
2022-09-22T18:42:41.542Z,8.38
2022-09-22T18:45:11.136Z,9.30
2022-09-22T18:47:40.933Z,8.45
2022-09-22T18:50:09.509Z,11.15
2022-09-22T18:52:37.383Z,12.32
2022-09-22T18:55:09.446Z,8.95
2022-09-22T18:57:36.794Z,12.60
2022-09-22T19:00:05.356Z,10.02
2022-09-22T19:02:32.796Z,7.68
2022-09-22T19:05:00.317Z,13.02
2022-09-22T19:07:44.065Z,8.38
2022-09-22T19:10:22.496Z,12.27
2022-09-22T19:12:50.268Z,8.98
2022-09-22T19:15:19.390Z,10.65
2022-09-22T19:17:49.542Z,13.05
2022-09-22T19:20:24.035Z,7.25
2022-09-22T19:22:52.646Z,7.85
2022-09-22T19:25:21.858Z,10.18
2022-09-22T19:27:52.552Z,10.77
2022-09-22T19:30:23.397Z,9.82
2022-09-22T19:32:53.313Z,7.55
2022-09-22T19:35:22.311Z,16.67
2022-09-22T19:37:52.017Z,10.48
2022-09-22T19:40:24.445Z,9.97
2022-09-22T19:42:53.752Z,12.40
2022-09-22T19:45:22.349Z,12.90
2022-09-22T19:47:49.933Z,13.43
2022-09-22T19:50:18.080Z,10.95
2022-09-22T19:52:45.341Z,10.63
2022-09-22T19:55:12.705Z,11.50
2022-09-22T19:57:43.411Z,10.07
2022-09-22T20:02:45.729Z,8.30
2022-09-22T20:05:21.930Z,9.25
2022-09-22T20:07:49.756Z,8.60
2022-09-22T20:10:19.318Z,9.65
2022-09-22T20:12:46.687Z,9.82
2022-09-22T20:15:15.258Z,8.70
2022-09-22T20:17:46.340Z,9.70
2022-09-22T20:20:19.804Z,10.90
2022-09-22T20:23:00.102Z,9.10
2022-09-22T20:25:30.939Z,11.63
2022-09-22T20:27:59.112Z,11.15
2022-09-22T20:30:27.623Z,8.98
2022-09-22T20:32:55.167Z,8.07
2022-09-22T20:35:22.434Z,12.82
2022-09-22T20:37:51.595Z,11.40
2022-09-22T20:40:21.667Z,20.45
2022-09-22T20:42:50.866Z,18.73
2022-09-22T20:45:20.884Z,20.92
2022-09-22T20:47:48.250Z,19.80
2022-09-22T20:50:15.885Z,17.58
2022-09-22T20:52:43.269Z,16.15
2022-09-22T20:55:11.787Z,12.70
2022-09-22T20:57:40.261Z,13.57
2022-09-22T21:00:08.486Z,11.80
2022-09-22T21:02:35.835Z,9.68
2022-09-22T21:05:03.390Z,9.60
2022-09-22T21:07:32.502Z,13.02
2022-09-22T21:10:18.150Z,11.00
2022-09-22T21:12:45.530Z,12.60
2022-09-22T21:15:13.281Z,9.35
2022-09-22T21:17:43.984Z,9.02
2022-09-22T21:20:11.528Z,10.48
2022-09-22T21:22:38.728Z,10.05
2022-09-22T21:25:06.530Z,12.27
2022-09-22T21:27:33.724Z,9.45
2022-09-22T21:30:01.169Z,8.48
2022-09-22T21:32:28.371Z,9.10
2022-09-22T21:34:57.481Z,11.45
2022-09-22T21:37:25.041Z,7.40
2022-09-22T21:39:52.332Z,10.52
2022-09-22T21:42:20.093Z,9.57
2022-09-22T21:44:48.705Z,9.80
2022-09-22T21:47:15.925Z,7.82
2022-09-22T21:49:43.192Z,10.35
2022-09-22T21:52:10.384Z,7.82
2022-09-22T21:54:37.672Z,8.75
2022-09-22T21:57:05.141Z,8.90
2022-09-22T21:59:32.379Z,8.23
2022-09-22T22:02:00.229Z,10.95
2022-09-22T22:04:27.730Z,8.15
2022-09-22T22:06:55.081Z,11.65
2022-09-22T22:09:24.178Z,11.57
2022-09-22T22:11:58.940Z,12.02
2022-09-22T22:14:32.060Z,10.45
2022-09-22T22:17:01.226Z,6.75
2022-09-22T22:19:28.507Z,8.57
2022-09-22T22:21:55.864Z,10.13
2022-09-22T22:24:41.165Z,10.00
2022-09-22T22:27:10.816Z,9.23
2022-09-22T22:29:39.021Z,7.22
2022-09-22T22:32:09.248Z,12.68
2022-09-22T22:34:37.674Z,8.27
2022-09-22T22:37:08.870Z,7.57
2022-09-22T22:39:36.174Z,7.72
2022-09-22T22:42:04.475Z,6.90
2022-09-22T22:44:31.673Z,6.82
2022-09-22T22:46:58.845Z,11.18
2022-09-22T22:49:27.200Z,10.52
2022-09-22T22:51:54.377Z,10.65
2022-09-22T22:54:21.567Z,13.07
2022-09-22T22:56:51.223Z,12.45
2022-09-22T22:59:19.424Z,10.18
2022-09-22T23:01:46.795Z,14.85
2022-09-22T23:04:14.197Z,10.15
2022-09-22T23:06:45.204Z,11.57
2022-09-22T23:09:16.832Z,14.02
2022-09-22T23:11:46.412Z,11.07
2022-09-22T23:14:16.338Z,15.25
2022-09-22T23:16:46.600Z,13.30
2022-09-22T23:19:17.646Z,14.23
2022-09-22T23:24:19.223Z,13.18
2022-09-22T23:26:47.165Z,14.82
2022-09-22T23:29:14.666Z,14.38
2022-09-22T23:31:42.220Z,14.35
2022-09-22T23:34:09.421Z,16.30
2022-09-22T23:36:36.701Z,17.33
2022-09-22T23:39:04.781Z,14.80
2022-09-22T23:41:35.238Z,14.48
2022-09-22T23:44:03.352Z,17.35
2022-09-22T23:46:31.763Z,22.02
2022-09-22T23:49:00.226Z,15.70
2022-09-22T23:51:28.230Z,14.50
2022-09-22T23:53:56.275Z,15.52
2022-09-22T23:56:24.368Z,17.83
2022-09-22T23:58:52.124Z,10.80
